Time;durP1;ratioP1;P1;durP2;ratioP2;P2;SDS_P1;SDS_P2;PMS_P1;PMS_P2;Temp;Humidity;BMP_temperature;BMP_pressure;BME280_temperature;BME280_humidity;BME280_pressure;Samples;Min_cycle;Max_cycle;Signal;HPM_P1;HPM_P2
2022/03/03 00:01:32;;;;;;;23.47;14.43;;;;;;;0.37;100.00;100326.28;4989114;28;20057;-75
2022/03/03 00:03:57;;;;;;;22.50;15.17;;;;;;;0.36;100.00;100333.00;4989576;28;20371;-76
2022/03/03 00:06:23;;;;;;;23.83;15.20;;;;;;;0.29;100.00;100313.00;4988714;28;20042;-76
2022/03/03 00:08:48;;;;;;;21.77;13.70;;;;;;;0.39;100.00;100330.69;4989708;28;20023;-71
2022/03/03 00:11:13;;;;;;;22.00;14.80;;;;;;;0.44;100.00;100331.06;4971811;28;20018;-71
2022/03/03 00:13:39;;;;;;;22.40;14.87;;;;;;;0.43;100.00;100321.66;4988759;28;20018;-72
2022/03/03 00:16:05;;;;;;;44.33;18.60;;;;;;;0.60;100.00;100333.09;4990059;28;20025;-74
2022/03/03 00:18:30;;;;;;;27.50;15.80;;;;;;;0.52;100.00;100329.94;4990269;28;20108;-73
2022/03/03 00:20:56;;;;;;;23.50;14.27;;;;;;;0.27;100.00;100279.88;4990231;28;20029;-71
2022/03/03 00:23:21;;;;;;;19.47;12.70;;;;;;;0.56;100.00;100321.81;4990193;28;20038;-71
2022/03/03 00:25:47;;;;;;;21.43;13.90;;;;;;;0.60;100.00;100318.72;4990198;28;20033;-72
2022/03/03 00:28:12;;;;;;;28.00;19.63;;;;;;;0.51;100.00;100315.47;4987418;28;20027;-72
2022/03/03 00:30:37;;;;;;;22.50;15.10;;;;;;;0.53;100.00;100315.63;4988885;28;20061;-71
2022/03/03 00:33:03;;;;;;;32.17;22.10;;;;;;;0.55;100.00;100309.88;4988942;28;20532;-72
2022/03/03 00:35:28;;;;;;;27.10;18.63;;;;;;;0.53;100.00;100303.78;4988112;28;20026;-71
2022/03/03 00:37:54;;;;;;;22.83;14.40;;;;;;;0.50;100.00;100274.72;4991472;28;20022;-72
2022/03/03 00:40:20;;;;;;;18.23;12.13;;;;;;;0.73;100.00;100310.34;4992496;28;20102;-71
2022/03/03 00:42:45;;;;;;;21.63;11.77;;;;;;;0.82;100.00;100309.25;4992105;28;20026;-70
2022/03/03 00:45:11;;;;;;;16.70;11.57;;;;;;;0.64;100.00;100279.19;4989206;28;20041;-72
2022/03/03 00:47:36;;;;;;;15.90;11.30;;;;;;;0.70;100.00;100310.13;4991665;28;20018;-71
2022/03/03 00:50:02;;;;;;;17.60;10.60;;;;;;;0.75;100.00;100307.94;4990707;28;20022;-70
2022/03/03 00:52:28;;;;;;;16.07;11.17;;;;;;;0.88;100.00;100309.69;4993086;28;20054;-72
2022/03/03 00:54:53;;;;;;;16.50;10.47;;;;;;;1.02;100.00;100308.16;4991887;28;20057;-72
2022/03/03 00:57:19;;;;;;;17.83;11.10;;;;;;;0.97;100.00;100305.28;4992539;28;20393;-72
2022/03/03 00:59:44;;;;;;;16.43;11.10;;;;;;;0.97;100.00;100305.28;4993367;28;20384;-72
2022/03/03 01:02:09;;;;;;;15.50;9.97;;;;;;;1.11;100.00;100319.88;4991899;28;20030;-71
2022/03/03 01:04:35;;;;;;;14.07;9.97;;;;;;;1.19;100.00;100310.25;4991508;28;20046;-72
2022/03/03 01:07:00;;;;;;;16.60;12.33;;;;;;;1.26;100.00;100296.34;4993889;28;20034;-74
2022/03/03 01:09:26;;;;;;;16.60;10.20;;;;;;;1.31;100.00;100300.09;4991445;28;20023;-73
2022/03/03 01:11:51;;;;;;;15.77;10.40;;;;;;;1.31;100.00;100306.81;4991346;28;20452;-70
2022/03/03 01:14:21;;;;;;;24.83;19.63;;;;;;;1.33;100.00;100301.06;4992681;28;20023;-74
2022/03/03 01:16:47;;;;;;;;;;;;;;;1.27;100.00;100304.06;4993499;28;20029;-74
2022/03/03 01:19:12;;;;;;;17.17;12.03;;;;;;;1.10;100.00;100276.56;4992475;28;20296;-74
2022/03/03 01:21:38;;;;;;;16.80;10.87;;;;;;;1.35;100.00;100307.16;4992860;28;20026;-74
2022/03/03 01:24:03;;;;;;;18.23;11.57;;;;;;;1.26;100.00;100315.00;4991796;28;20029;-74
2022/03/03 01:26:30;;;;;;;18.27;11.33;;;;;;;1.26;100.00;100316.69;4992357;28;20408;-73
2022/03/03 01:28:55;;;;;;;14.63;9.70;;;;;;;0.94;100.00;100244.94;4992386;28;20023;-74
2022/03/03 01:31:21;;;;;;;15.83;10.13;;;;;;;1.06;100.00;100278.00;4991338;28;20081;-74
2022/03/03 01:33:46;;;;;;;15.83;9.37;;;;;;;1.32;100.00;100295.88;4992363;28;20043;-77
2022/03/03 01:36:12;;;;;;;14.10;8.87;;;;;;;1.28;100.00;100287.13;4992677;28;20450;-76
2022/03/03 01:38:37;;;;;;;12.93;8.00;;;;;;;1.33;100.00;100295.97;4992559;28;20405;-75
2022/03/03 01:41:03;;;;;;;11.43;7.60;;;;;;;1.29;100.00;100281.28;4992678;28;20022;-76
2022/03/03 01:43:28;;;;;;;13.03;8.73;;;;;;;1.34;100.00;100292.66;4992080;28;20436;-76
2022/03/03 01:45:53;;;;;;;22.50;12.83;;;;;;;1.40;100.00;100307.47;4992126;28;20034;-73
2022/03/03 01:48:19;;;;;;;14.40;9.70;;;;;;;1.35;100.00;100286.81;4991414;28;20025;-76
2022/03/03 01:50:45;;;;;;;14.77;9.57;;;;;;;1.24;100.00;100269.91;4991959;28;20018;-76
2022/03/03 01:53:11;;;;;;;16.00;11.73;;;;;;;1.33;100.00;100295.09;4992425;28;20027;-74
2022/03/03 01:55:36;;;;;;;13.87;8.93;;;;;;;1.25;100.00;100284.41;4992310;28;20018;-76
2022/03/03 01:58:03;;;;;;;14.70;8.80;;;;;;;0.85;100.00;100243.38;4974582;28;20081;-76
2022/03/03 02:00:29;;;;;;;14.43;8.87;;;;;;;1.03;100.00;100274.34;4974649;28;20026;-74
2022/03/03 02:02:54;;;;;;;15.57;9.57;;;;;;;1.06;100.00;100294.88;4992116;28;20018;-74
2022/03/03 02:05:20;;;;;;;12.33;8.63;;;;;;;0.96;100.00;100285.75;4968129;28;20101;-73
2022/03/03 02:07:45;;;;;;;13.83;8.63;;;;;;;0.92;100.00;100292.25;4952201;29;20047;-79
2022/03/03 02:10:11;;;;;;;13.13;8.47;;;;;;;0.85;100.00;100294.22;4953430;28;20050;-77
2022/03/03 02:12:37;;;;;;;13.43;8.60;;;;;;;0.84;100.00;100292.47;4953176;28;20027;-72
2022/03/03 02:15:03;;;;;;;13.40;8.93;;;;;;;0.86;100.00;100296.00;4953266;28;20118;-72
2022/03/03 02:17:29;;;;;;;16.57;9.17;;;;;;;0.70;100.00;100268.56;4953388;28;20011;-73
2022/03/03 02:19:54;;;;;;;14.50;9.10;;;;;;;0.80;100.00;100296.44;4953242;29;20489;-71
2022/03/03 02:22:20;;;;;;;14.63;9.50;;;;;;;0.82;100.00;100279.63;4953186;28;20023;-71
2022/03/03 02:24:45;;;;;;;13.87;9.27;;;;;;;1.00;100.00;100304.59;4953144;28;20504;-72
2022/03/03 02:27:11;;;;;;;13.50;9.20;;;;;;;0.74;100.00;100247.72;4953340;28;20117;-74
2022/03/03 02:29:37;;;;;;;37.20;21.50;;;;;;;1.11;100.00;100307.16;4952543;28;20023;-73
2022/03/03 02:32:05;;;;;;;26.73;17.00;;;;;;;1.05;100.00;100298.22;4951790;29;20023;-71
2022/03/03 02:34:31;;;;;;;15.87;12.00;;;;;;;0.94;100.00;100262.72;4952719;28;20026;-74
2022/03/03 02:36:56;;;;;;;12.60;9.60;;;;;;;1.22;100.00;100295.22;4952925;28;20019;-72
2022/03/03 02:39:22;;;;;;;33.23;26.47;;;;;;;1.03;100.00;100269.25;4953219;28;20106;-73
2022/03/03 02:41:47;;;;;;;14.97;10.60;;;;;;;1.05;100.00;100296.56;4952770;28;20055;-73
2022/03/03 02:44:12;;;;;;;13.57;9.27;;;;;;;1.04;100.00;100294.78;4952259;28;20063;-71
2022/03/03 02:46:38;;;;;;;14.13;10.00;;;;;;;1.11;100.00;100307.16;4952709;28;20020;-73
2022/03/03 02:49:04;;;;;;;13.60;8.90;;;;;;;0.90;100.00;100264.97;4952634;28;20513;-70
2022/03/03 02:51:30;;;;;;;12.43;8.90;;;;;;;1.05;100.00;100290.59;4951577;29;20027;-75
2022/03/03 02:53:56;;;;;;;13.87;9.60;;;;;;;0.96;100.00;100275.56;4966390;28;20027;-74
2022/03/03 02:56:21;;;;;;;14.10;9.23;;;;;;;0.96;100.00;100293.38;4952546;28;20023;-74
2022/03/03 02:58:47;;;;;;;13.83;9.13;;;;;;;0.73;100.00;100258.66;4952687;28;20038;-73
2022/03/03 03:01:12;;;;;;;14.07;9.23;;;;;;;0.88;100.00;100284.28;4952326;28;20019;-73
2022/03/03 03:03:38;;;;;;;12.30;8.63;;;;;;;0.96;100.00;100308.63;4950038;29;20027;-73
2022/03/03 03:06:04;;;;;;;14.10;8.80;;;;;;;0.83;100.00;100300.88;4980700;28;20497;-74
2022/03/03 03:08:30;;;;;;;12.40;8.77;;;;;;;0.88;100.00;100291.91;4971886;28;20081;-74
2022/03/03 03:10:55;;;;;;;13.70;8.87;;;;;;;1.00;100.00;100297.88;4971347;28;20396;-72
2022/03/03 03:13:21;;;;;;;12.90;8.83;;;;;;;1.04;100.00;100309.16;4971089;28;20026;-71
2022/03/03 03:15:46;;;;;;;14.37;8.90;;;;;;;0.96;100.00;100288.28;4971717;28;20026;-71
2022/03/03 03:18:20;;;;;;;14.10;8.53;;;;;;;1.09;100.00;100303.63;4971659;28;20485;-74
2022/03/03 03:20:49;;;;;;;13.03;8.30;;;;;;;1.13;100.00;100302.19;4971773;28;20106;-77
2022/03/03 03:23:18;;;;;;;14.77;8.23;;;;;;;1.07;100.00;100296.66;4971416;28;20109;-73
2022/03/03 03:25:44;;;;;;;14.02;8.57;;;;;;;1.12;100.00;100301.31;4968763;28;20089;-76
2022/03/03 03:28:14;;;;;;;14.00;9.37;;;;;;;1.17;100.00;100303.28;4971173;28;20485;-73
2022/03/03 03:30:41;;;;;;;11.70;8.00;;;;;;;0.83;100.00;100243.28;4971747;28;20437;-74
2022/03/03 03:33:07;;;;;;;12.90;8.40;;;;;;;1.22;100.00;100307.94;4971379;28;20034;-78
2022/03/03 03:35:32;;;;;;;11.33;8.30;;;;;;;1.17;100.00;100285.50;4971523;28;20461;-78
2022/03/03 03:37:58;;;;;;;12.43;8.20;;;;;;;1.07;100.00;100264.50;4970959;28;20023;-72
2022/03/03 03:40:24;;;;;;;11.83;8.03;;;;;;;1.15;100.00;100281.94;4971154;28;20050;-75
2022/03/03 03:42:49;;;;;;;14.80;9.47;;;;;;;1.20;100.00;100298.44;4971336;28;20023;-79
2022/03/03 03:45:15;;;;;;;12.10;8.73;;;;;;;1.28;100.00;100288.03;4970947;28;20023;-79
2022/03/03 03:47:41;;;;;;;14.43;8.43;;;;;;;1.28;100.00;100289.69;4971135;28;20030;-75
2022/03/03 03:50:09;;;;;;;15.07;9.30;;;;;;;1.20;100.00;100294.22;4971218;28;20034;-74
2022/03/03 03:52:39;;;;;;;14.43;9.03;;;;;;;0.85;100.00;100243.38;4971314;28;20478;-75
2022/03/03 03:55:06;;;;;;;14.70;9.47;;;;;;;1.12;100.00;100286.06;4970745;28;20513;-74
2022/03/03 03:57:32;;;;;;;14.17;9.83;;;;;;;0.90;100.00;100234.47;4971107;28;20022;-73
2022/03/03 03:59:58;;;;;;;12.30;9.33;;;;;;;1.16;100.00;100269.38;4971015;28;20474;-74
2022/03/03 04:02:24;;;;;;;13.47;9.23;;;;;;;1.22;100.00;100268.91;4975912;28;20452;-76
2022/03/03 04:04:49;;;;;;;14.03;9.80;;;;;;;1.42;100.00;100283.94;4998217;28;20053;-76
2022/03/03 04:07:15;;;;;;;13.93;9.27;;;;;;;1.47;100.00;100283.34;5010844;28;20040;-74
2022/03/03 04:09:40;;;;;;;14.13;9.27;;;;;;;1.45;100.00;100285.78;5011039;28;20384;-71
2022/03/03 04:12:06;;;;;;;14.17;9.30;;;;;;;1.50;100.00;100288.69;5011837;28;20380;-76
2022/03/03 04:14:35;;;;;;;16.70;10.37;;;;;;;1.69;100.00;100289.16;4979991;28;20042;-80
2022/03/03 04:17:00;;;;;;;16.47;11.00;;;;;;;1.50;100.00;100250.50;5014874;28;20491;-76
2022/03/03 04:19:26;;;;;;;17.87;12.23;;;;;;;1.78;100.00;100292.34;5015211;28;20021;-77
2022/03/03 04:21:52;;;;;;;19.80;11.97;;;;;;;1.71;100.00;100286.75;5014609;28;20118;-76
2022/03/03 04:24:17;;;;;;;18.40;11.73;;;;;;;1.48;100.00;100237.66;5015133;28;20057;-73
2022/03/03 04:26:43;;;;;;;22.07;12.50;;;;;;;1.65;100.00;100289.72;5014963;28;20037;-76
2022/03/03 04:29:08;;;;;;;18.83;13.10;;;;;;;1.51;100.00;100281.13;5014863;28;20768;-75
2022/03/03 04:31:34;;;;;;;18.60;12.80;;;;;;;1.43;100.00;100256.81;5014963;28;20058;-72
2022/03/03 04:33:59;;;;;;;22.60;13.83;;;;;;;1.58;100.00;100285.88;5014382;28;20021;-74
2022/03/03 04:36:25;;;;;;;21.90;14.90;;;;;;;1.60;100.00;100280.91;5014251;28;20022;-80
2022/03/03 04:38:51;;;;;;;21.57;14.70;;;;;;;1.67;100.00;100278.00;5014853;28;20468;-78
2022/03/03 04:41:20;;;;;;;21.43;15.17;;;;;;;1.70;100.00;100283.28;5014490;28;20029;-76
2022/03/03 04:43:46;;;;;;;23.33;14.90;;;;;;;1.41;100.00;100241.44;4979742;28;20446;-75
2022/03/03 04:46:11;;;;;;;24.43;14.87;;;;;;;1.73;100.00;100277.53;5014276;28;20173;-76
2022/03/03 04:48:37;;;;;;;25.10;14.93;;;;;;;1.85;100.00;100287.69;5014304;28;20030;-73
2022/03/03 04:51:03;;;;;;;24.67;15.10;;;;;;;1.93;100.00;100279.78;5014162;28;20046;-77
2022/03/03 04:53:29;;;;;;;21.53;14.93;;;;;;;1.99;100.00;100292.03;5014433;28;20026;-76
2022/03/03 04:55:57;;;;;;;24.43;14.80;;;;;;;2.03;100.00;100283.84;5014464;28;20026;-79
2022/03/03 04:58:23;;;;;;;23.63;15.53;;;;;;;1.97;100.00;100263.06;5014460;28;20026;-74
2022/03/03 05:00:48;;;;;;;21.73;15.20;;;;;;;2.13;100.00;100281.91;5014111;28;20029;-74
2022/03/03 05:03:14;;;;;;;22.37;14.73;;;;;;;2.08;100.00;100287.59;5014061;28;20040;-74
2022/03/03 05:05:40;;;;;;;20.90;15.57;;;;;;;2.10;100.00;100285.16;5013869;28;20582;-74
2022/03/03 05:08:05;;;;;;;67.47;34.17;;;;;;;1.78;100.00;100226.19;5014122;28;20026;-76
2022/03/03 05:10:31;;;;;;;68.33;36.93;;;;;;;2.17;100.00;100276.25;5014068;28;20021;-77
2022/03/03 05:12:57;;;;;;;49.80;30.77;;;;;;;2.19;100.00;100289.97;5013812;28;20076;-76
2022/03/03 05:15:23;;;;;;;78.70;42.27;;;;;;;1.90;100.00;100254.13;5013760;28;20387;-76
2022/03/03 05:17:48;;;;;;;57.50;36.37;;;;;;;2.21;100.00;100293.53;5014062;28;20431;-76
2022/03/03 05:20:14;;;;;;;36.33;24.47;;;;;;;2.15;100.00;100282.91;4995170;28;20072;-75
2022/03/03 05:22:40;;;;;;;23.50;16.43;;;;;;;2.14;100.00;100279.47;5013614;28;20120;-74
2022/03/03 05:25:06;;;;;;;23.80;16.87;;;;;;;2.07;100.00;100285.81;4995978;28;20056;-76
2022/03/03 05:27:33;;;;;;;26.73;19.30;;;;;;;1.84;100.00;100248.59;4978833;28;20540;-78
2022/03/03 05:29:59;;;;;;;31.57;22.43;;;;;;;1.94;100.00;100262.84;5013362;28;20036;-73
2022/03/03 05:32:25;;;;;;;29.80;22.47;;;;;;;2.24;100.00;100307.34;5013729;28;20055;-79
2022/03/03 05:34:51;;;;;;;24.70;16.83;;;;;;;2.25;99.61;100300.56;5013608;28;20451;-79
2022/03/03 05:37:22;;;;;;;28.90;18.43;;;;;;;1.90;100.00;100254.13;5013578;28;20034;-75
2022/03/03 05:39:47;;;;;;;92.27;38.77;;;;;;;2.05;100.00;100278.88;5013585;28;20381;-76
2022/03/03 05:42:13;;;;;;;85.50;35.73;;;;;;;2.19;100.00;100289.97;4995681;28;20037;-76
2022/03/03 05:44:38;;;;;;;196.27;72.17;;;;;;;2.04;100.00;100265.22;5013469;28;20025;-77
2022/03/03 05:47:04;;;;;;;114.43;49.87;;;;;;;2.03;100.00;100291.50;5013498;28;20026;-74
2022/03/03 05:49:30;;;;;;;52.13;29.33;;;;;;;1.92;100.00;100283.13;5012952;28;20385;-73
2022/03/03 05:51:56;;;;;;;86.90;37.80;;;;;;;1.96;100.00;100280.75;5013327;28;20028;-77
2022/03/03 05:54:21;;;;;;;76.90;38.13;;;;;;;1.87;100.00;100278.47;5013304;28;20030;-78
2022/03/03 05:56:49;;;;;;;51.67;26.40;;;;;;;1.77;100.00;100282.06;4994402;28;20037;-80
2022/03/03 05:59:15;;;;;;;25.23;17.37;;;;;;;1.76;100.00;100300.66;5012984;28;20037;-76
2022/03/03 06:01:42;;;;;;;40.53;23.73;;;;;;;1.73;100.00;100272.44;5012901;28;20076;-78
2022/03/03 06:04:15;;;;;;;150.10;58.90;;;;;;;2.02;100.00;100306.66;5012323;28;20108;-77
2022/03/03 06:06:52;;;;;;;40.13;23.17;;;;;;;1.88;100.00;100310.78;5012616;28;20064;-77
2022/03/03 06:09:24;;;;;;;27.03;16.57;;;;;;;1.92;100.00;100310.25;5012659;28;20044;-78
2022/03/03 06:11:54;;;;;;;47.87;23.50;;;;;;;1.94;100.00;100303.56;5012830;28;20032;-77
2022/03/03 06:14:37;;;;;;;25.07;16.37;;;;;;;1.78;100.00;100286.38;5012622;28;20022;-76
2022/03/03 06:17:03;;;;;;;25.33;14.80;;;;;;;1.99;100.00;100306.44;4978048;28;20453;-79
2022/03/03 06:19:30;;;;;;;24.50;16.07;;;;;;;1.75;100.00;100281.06;5012675;28;20044;-77
2022/03/03 06:21:55;;;;;;;24.73;16.00;;;;;;;1.85;100.00;100313.16;5012406;28;20113;-78
2022/03/03 06:24:21;;;;;;;22.83;15.57;;;;;;;1.95;100.00;100318.09;5012417;28;20101;-77
2022/03/03 06:26:49;;;;;;;23.10;15.70;;;;;;;1.84;100.00;100285.91;5012350;28;20507;-76
2022/03/03 06:29:15;;;;;;;24.35;15.20;;;;;;;2.12;100.00;100324.34;5012543;28;20053;-77
2022/03/03 06:31:40;;;;;;;20.27;14.53;;;;;;;2.13;100.00;100310.84;5012673;28;20065;-74
2022/03/03 06:34:07;;;;;;;20.53;14.13;;;;;;;2.13;100.00;100320.13;5012653;28;20433;-78
2022/03/03 06:36:33;;;;;;;22.40;15.70;;;;;;;2.16;100.00;100315.25;5011842;28;20480;-76
2022/03/03 06:39:00;;;;;;;21.27;14.70;;;;;;;2.30;100.00;100319.59;5010628;28;20063;-80
2022/03/03 06:41:26;;;;;;;19.63;13.57;;;;;;;2.24;100.00;100322.63;5012091;28;20025;-77
2022/03/03 06:43:53;;;;;;;20.67;15.27;;;;;;;2.23;100.00;100305.56;5012354;28;20033;-77
2022/03/03 06:46:18;;;;;;;19.27;13.90;;;;;;;2.15;100.00;100308.38;5012076;28;20120;-76
2022/03/03 06:48:45;;;;;;;21.87;14.30;;;;;;;2.40;100.00;100323.66;5012092;28;20109;-80
2022/03/03 06:51:15;;;;;;;19.17;13.83;;;;;;;2.38;100.00;100331.19;5011922;28;20052;-79
2022/03/03 06:53:44;;;;;;;20.77;13.43;;;;;;;2.47;100.00;100333.47;5012243;28;20436;-75
2022/03/03 06:56:12;;;;;;;23.60;15.00;;;;;;;2.47;100.00;100317.28;5011585;28;20632;-74
2022/03/03 06:58:40;;;;;;;21.57;14.70;;;;;;;2.29;100.00;100277.06;5009470;28;20108;-73
2022/03/03 07:01:10;;;;;;;21.10;14.13;;;;;;;2.58;100.00;100318.91;4994236;28;20507;-74
2022/03/03 07:03:36;;;;;;;22.80;13.23;;;;;;;2.69;100.00;100324.69;5011653;28;20022;-78
2022/03/03 07:06:03;;;;;;;21.27;13.20;;;;;;;2.86;100.00;100324.16;5011929;28;20057;-72
2022/03/03 07:08:31;;;;;;;21.63;14.07;;;;;;;2.96;99.13;100327.31;5011423;28;20030;-73
2022/03/03 07:10:56;;;;;;;20.55;13.73;;;;;;;3.05;99.12;100335.53;5010600;28;20045;-75
2022/03/03 07:13:22;;;;;;;19.45;13.13;;;;;;;2.86;96.97;100313.06;5011789;28;20124;-75
2022/03/03 07:15:52;;;;;;;17.38;11.30;;;;;;;2.91;96.71;100329.56;5011852;28;20018;-75
2022/03/03 07:18:29;;;;;;;21.47;13.53;;;;;;;2.78;97.57;100256.50;5011774;28;20125;-75
2022/03/03 07:21:33;;;;;;;18.93;8.60;;;;;;;3.12;95.21;100353.03;5011444;28;20473;-75
2022/03/03 07:24:28;;;;;;;19.35;12.95;;;;;;;3.11;95.46;100346.16;5011683;28;20393;-76
2022/03/03 07:27:01;;;;;;;18.47;12.07;;;;;;;2.84;97.23;100322.28;4931751;29;20040;-77
2022/03/03 07:29:31;;;;;;;18.58;13.43;;;;;;;3.00;98.31;100317.38;4900196;29;20126;-78
2022/03/03 07:31:59;;;;;;;20.77;13.05;;;;;;;3.37;96.87;100352.06;4931639;29;20410;-73
2022/03/03 07:34:36;;;;;;;23.58;14.82;;;;;;;3.38;96.28;100349.59;4931648;29;20132;-75
2022/03/03 07:37:12;;;;;;;19.73;13.23;;;;;;;3.20;95.66;100305.03;4931584;29;20031;-75
2022/03/03 07:39:43;;;;;;;19.17;13.52;;;;;;;3.50;96.83;100343.50;4931546;29;20070;-74
2022/03/03 07:42:17;;;;;;;22.80;16.25;;;;;;;3.47;95.73;100339.09;4931529;29;20478;-75
2022/03/03 07:44:43;;;;;;;18.50;12.75;;;;;;;3.46;94.54;100331.34;4931326;29;20042;-74
2022/03/03 07:47:09;;;;;;;19.73;12.93;;;;;;;3.62;94.86;100340.84;4931460;29;20458;-76
2022/03/03 07:49:35;;;;;;;20.02;13.13;;;;;;;3.48;94.84;100314.47;4931450;29;20038;-75
2022/03/03 07:52:05;;;;;;;19.33;13.05;;;;;;;3.81;94.04;100342.88;4931133;29;20107;-76
2022/03/03 07:54:32;;;;;;;23.55;13.30;;;;;;;3.89;93.25;100339.13;4931179;29;20038;-76
2022/03/03 07:57:00;;;;;;;18.17;13.15;;;;;;;4.01;93.00;100322.00;4931165;29;20035;-74
2022/03/03 07:59:33;;;;;;;18.73;12.18;;;;;;;4.08;93.03;100338.56;4931283;29;20030;-77
2022/03/03 08:02:02;;;;;;;18.15;11.52;;;;;;;4.25;93.85;100337.03;4931212;29;20051;-78
2022/03/03 08:04:30;;;;;;;15.77;10.93;;;;;;;4.11;93.06;100335.31;4992204;28;20046;-73
2022/03/03 08:07:04;;;;;;;19.85;13.15;;;;;;;4.29;93.23;100338.97;5010714;28;20022;-76
2022/03/03 08:09:32;;;;;;;20.88;14.35;;;;;;;4.34;92.86;100342.69;4992169;28;20509;-73
2022/03/03 08:12:02;;;;;;;17.40;13.13;;;;;;;4.23;93.88;100343.72;5011156;28;20460;-76
2022/03/03 08:14:31;;;;;;;100.43;40.05;;;;;;;4.08;93.04;100332.59;5010778;28;20103;-75
2022/03/03 08:16:57;;;;;;;19.75;13.30;;;;;;;4.04;93.43;100339.19;5010623;28;20499;-75
2022/03/03 08:19:23;;;;;;;20.17;13.00;;;;;;;4.23;94.07;100341.16;5010735;28;20049;-74
2022/03/03 08:21:49;;;;;;;20.20;12.07;;;;;;;4.17;93.42;100344.22;5010977;28;20068;-72
2022/03/03 08:24:15;;;;;;;18.25;12.88;;;;;;;4.19;91.20;100346.91;5010798;28;20029;-77
2022/03/03 08:26:42;;;;;;;16.88;12.02;;;;;;;4.19;90.88;100341.78;5010714;28;20018;-76
2022/03/03 08:29:08;;;;;;;17.92;12.63;;;;;;;4.15;91.78;100343.25;5011028;28;20030;-75
2022/03/03 08:31:42;;;;;;;19.52;13.23;;;;;;;4.23;92.71;100345.41;5010584;28;20080;-75
2022/03/03 08:34:26;;;;;;;21.85;13.63;;;;;;;4.38;92.15;100344.63;5010774;28;20029;-75
2022/03/03 08:36:54;;;;;;;18.30;12.80;;;;;;;4.51;93.51;100341.16;5010455;28;20081;-78
2022/03/03 08:39:26;;;;;;;21.20;13.95;;;;;;;4.59;92.97;100349.25;5011109;28;20025;-73
2022/03/03 08:41:55;;;;;;;20.73;15.35;;;;;;;4.67;94.34;100342.94;5010690;28;20383;-76
2022/03/03 08:44:26;;;;;;;20.80;14.18;;;;;;;4.62;91.54;100293.22;4998884;28;20129;-77
2022/03/03 08:46:53;;;;;;;16.77;12.25;;;;;;;4.72;91.72;100319.28;5008007;28;20490;-78
2022/03/03 08:49:18;;;;;;;21.92;12.35;;;;;;;4.47;90.03;100280.38;5010235;28;20045;-73
2022/03/03 08:51:43;;;;;;;18.75;11.95;;;;;;;4.84;88.79;100333.66;5010304;28;20045;-74
2022/03/03 08:54:11;;;;;;;19.50;11.95;;;;;;;4.85;86.23;100326.91;5010133;28;20704;-77
2022/03/03 08:56:36;;;;;;;17.52;11.77;;;;;;;4.90;87.27;100330.59;5009774;28;20547;-74
2022/03/03 08:59:02;;;;;;;15.57;9.93;;;;;;;4.78;86.25;100356.31;4994859;28;20026;-73
2022/03/03 09:01:29;;;;;;;16.40;11.23;;;;;;;4.53;88.95;100302.88;4976442;28;20023;-75
2022/03/03 09:03:57;;;;;;;14.55;10.43;;;;;;;4.75;89.92;100345.94;4994032;28;20022;-74
2022/03/03 09:06:22;;;;;;;20.20;13.55;;;;;;;4.80;91.41;100339.41;4993798;28;20042;-74
2022/03/03 09:08:48;;;;;;;15.38;9.73;;;;;;;4.85;87.33;100311.53;4993888;28;20018;-77
2022/03/03 09:11:15;;;;;;;13.77;8.77;;;;;;;4.92;86.23;100326.47;4994138;28;20077;-75
2022/03/03 09:13:40;;;;;;;18.58;11.93;;;;;;;4.98;88.14;100326.78;4993877;28;21286;-76
2022/03/03 09:16:06;;;;;;;15.80;10.30;;;;;;;5.04;86.96;100338.19;4991472;28;20113;-75
2022/03/03 09:18:31;;;;;;;16.58;12.30;;;;;;;5.26;87.77;100338.59;5003189;28;20026;-74
2022/03/03 09:20:57;;;;;;;15.68;11.52;;;;;;;4.98;85.62;100285.84;5008862;28;20097;-76
2022/03/03 09:23:22;;;;;;;16.55;9.85;;;;;;;4.99;84.47;100325.13;5013388;28;20021;-75
2022/03/03 09:25:48;;;;;;;17.50;12.40;;;;;;;5.18;86.46;100337.28;5013147;28;20079;-74
2022/03/03 09:28:13;;;;;;;18.27;12.00;;;;;;;5.14;86.78;100336.22;5012841;28;20024;-74
2022/03/03 09:30:39;;;;;;;16.85;10.98;;;;;;;5.09;85.90;100331.66;5013295;28;20033;-74
2022/03/03 09:33:05;;;;;;;19.55;14.48;;;;;;;5.12;85.89;100349.72;5012323;28;20026;-75
2022/03/03 09:35:31;;;;;;;18.13;12.57;;;;;;;4.81;84.40;100299.34;5004123;28;20025;-79
2022/03/03 09:37:57;;;;;;;18.95;12.77;;;;;;;5.07;86.43;100349.47;4949533;28;20404;-74
2022/03/03 09:40:23;;;;;;;15.73;11.90;;;;;;;5.05;87.34;100350.16;5004482;28;20033;-74
2022/03/03 09:43:04;;;;;;;18.23;12.43;;;;;;;5.09;85.99;100350.44;5012731;28;20547;-72
2022/03/03 09:45:32;;;;;;;16.70;9.82;;;;;;;5.00;84.80;100338.00;5010771;28;20087;-73
2022/03/03 09:48:00;;;;;;;18.55;12.65;;;;;;;5.10;86.90;100331.72;5007606;28;20540;-75
2022/03/03 09:50:26;;;;;;;32.97;21.00;;;;;;;5.14;86.14;100345.56;5003888;28;20076;-73
2022/03/03 09:52:54;;;;;;;21.45;15.77;;;;;;;5.11;87.15;100335.16;4997828;28;20026;-73
2022/03/03 09:55:20;;;;;;;26.48;19.00;;;;;;;5.25;88.11;100329.16;5002335;28;20031;-75
2022/03/03 09:57:50;;;;;;;17.33;12.43;;;;;;;4.98;87.93;100301.19;4999074;28;20058;-74
2022/03/03 10:00:17;;;;;;;;;;;;;;;5.13;87.99;100342.13;4997543;28;20030;-75
2022/03/03 10:03:08;;;;;;;17.05;12.57;;;;;;;5.16;87.45;100338.88;5004546;28;20308;-75
2022/03/03 10:05:38;;;;;;;17.08;13.05;;;;;;;5.17;87.00;100330.38;4993725;28;20397;-76
2022/03/03 10:08:05;;;;;;;21.88;14.38;;;;;;;5.32;87.88;100327.78;5005965;28;20037;-76
2022/03/03 10:10:31;;;;;;;20.52;13.50;;;;;;;5.53;86.85;100329.78;5011590;28;20041;-73
2022/03/03 10:12:58;;;;;;;18.60;14.35;;;;;;;5.73;86.74;100313.84;5012247;28;20089;-76
2022/03/03 10:15:31;;;;;;;21.23;14.27;;;;;;;5.74;86.20;100318.16;5012324;28;20104;-75
2022/03/03 10:18:09;;;;;;;23.85;16.23;;;;;;;5.69;86.99;100326.41;5011930;28;20029;-76
2022/03/03 10:20:48;;;;;;;18.98;14.38;;;;;;;5.27;88.12;100249.88;4979728;28;20124;-75
2022/03/03 10:23:14;;;;;;;21.05;15.32;;;;;;;5.67;87.49;100322.06;5010148;28;20022;-73
2022/03/03 10:25:42;;;;;;;19.38;14.45;;;;;;;5.57;86.90;100318.91;4985102;28;20042;-75
2022/03/03 10:28:25;;;;;;;22.73;14.63;;;;;;;5.61;87.20;100315.75;4988858;28;20373;-73
2022/03/03 10:30:52;;;;;;;22.02;15.90;;;;;;;5.59;88.19;100318.19;5001812;28;20069;-76
2022/03/03 10:33:20;;;;;;;23.20;15.15;;;;;;;5.60;86.82;100291.78;5012091;28;20026;-76
2022/03/03 10:35:59;;;;;;;20.17;15.27;;;;;;;5.75;86.34;100311.34;4998639;28;20026;-76
2022/03/03 10:38:25;;;;;;;16.15;13.30;;;;;;;5.64;83.68;100275.78;5007674;28;20506;-75
2022/03/03 10:40:50;;;;;;;21.42;14.93;;;;;;;6.03;85.15;100297.47;5011712;28;20057;-77
2022/03/03 10:43:16;;;;;;;18.33;12.52;;;;;;;5.95;83.10;100297.03;5011680;28;20045;-76
2022/03/03 10:45:59;;;;;;;17.23;12.10;;;;;;;5.82;83.06;100301.53;5011767;28;20029;-76
2022/03/03 10:48:27;;;;;;;21.88;16.73;;;;;;;5.85;84.21;100297.38;4999882;28;20029;-73
2022/03/03 10:50:54;;;;;;;16.63;12.13;;;;;;;5.65;83.25;100256.19;4969245;28;20141;-74
2022/03/03 10:53:22;;;;;;;20.00;12.15;;;;;;;5.17;82.37;100176.84;5009909;28;20045;-73
2022/03/03 10:56:08;;;;;;;20.45;15.77;;;;;;;5.63;83.63;100242.41;4997167;28;20078;-76
2022/03/03 10:58:50;;;;;;;17.98;13.80;;;;;;;5.85;84.58;100285.44;4982044;28;20394;-73
2022/03/03 11:01:37;;;;;;;14.77;10.82;;;;;;;5.79;84.33;100285.09;4981691;28;20030;-76
2022/03/03 11:04:04;;;;;;;19.65;12.60;;;;;;;5.86;84.86;100281.16;4972294;28;20038;-75
2022/03/03 11:06:30;;;;;;;15.30;11.80;;;;;;;5.78;85.10;100270.53;4983635;28;20046;-78
2022/03/03 11:08:59;;;;;;;15.38;11.05;;;;;;;5.83;84.19;100280.22;4983551;28;20092;-77
2022/03/03 11:11:25;;;;;;;18.02;12.05;;;;;;;5.85;85.36;100289.69;4975227;28;20038;-77
2022/03/03 11:13:52;;;;;;;20.58;12.13;;;;;;;5.48;94.81;100280.88;4982992;28;20018;-77
2022/03/03 11:16:21;;;;;;;16.77;9.48;;;;;;;5.05;97.57;100306.66;4973031;28;20158;-77